Time;durP1;ratioP1;P1;durP2;ratioP2;P2;SDS_P1;SDS_P2;PMS_P1;PMS_P2;Temp;Humidity;BMP_temperature;BMP_pressure;BME280_temperature;BME280_humidity;BME280_pressure;Samples;Min_cycle;Max_cycle;Signal;HPM_P1;HPM_P2
2023/07/26 00:00:43;;;;;;;3.80;1.80;;;;;;;13.38;100.00;101055.09;5091989;28;20036;-49
2023/07/26 00:03:08;;;;;;;4.45;1.80;;;;;;;13.32;100.00;101047.41;5091648;28;20042;-51
2023/07/26 00:05:34;;;;;;;3.08;1.80;;;;;;;13.20;100.00;101038.19;5092063;28;20067;-52
2023/07/26 00:07:59;;;;;;;2.08;1.88;;;;;;;13.24;100.00;101026.56;5092520;28;20032;-50
2023/07/26 00:10:24;;;;;;;4.88;1.40;;;;;;;13.21;100.00;101033.75;5092458;28;20047;-48
2023/07/26 00:12:50;;;;;;;2.20;1.50;;;;;;;12.76;100.00;100958.00;5092588;28;20035;-48
2023/07/26 00:15:15;;;;;;;3.67;1.70;;;;;;;12.71;100.00;100957.31;5074354;28;20437;-52
2023/07/26 00:17:41;;;;;;;3.30;1.90;;;;;;;12.73;100.00;100954.59;5091626;28;20056;-51
2023/07/26 00:20:07;;;;;;;2.35;1.85;;;;;;;13.07;100.00;101028.13;5091394;28;20036;-49
2023/07/26 00:22:32;;;;;;;2.40;1.80;;;;;;;12.59;100.00;100959.56;5092374;28;20040;-48
2023/07/26 00:24:59;;;;;;;3.40;2.03;;;;;;;12.48;100.00;100941.50;5092061;28;20085;-51
2023/07/26 00:27:25;;;;;;;2.83;1.80;;;;;;;12.57;100.00;100964.94;5091866;28;20036;-49
2023/07/26 00:29:50;;;;;;;2.85;1.85;;;;;;;12.45;100.00;100946.91;5092347;28;20028;-52
2023/07/26 00:32:15;;;;;;;2.63;1.90;;;;;;;12.86;100.00;101025.41;5092208;28;20403;-49
2023/07/26 00:34:41;;;;;;;3.88;1.75;;;;;;;12.34;100.00;100946.47;5091337;28;20059;-50
2023/07/26 00:37:06;;;;;;;2.38;1.70;;;;;;;12.76;100.00;101028.44;5057460;28;20047;-48
2023/07/26 00:39:31;;;;;;;2.42;1.90;;;;;;;12.74;100.00;101025.88;5091844;28;20032;-51
2023/07/26 00:41:57;;;;;;;2.78;1.98;;;;;;;12.69;100.00;101029.63;5092101;28;20024;-50
2023/07/26 00:44:22;;;;;;;2.08;1.77;;;;;;;12.26;100.00;100957.28;5091855;28;20282;-50
2023/07/26 00:46:48;;;;;;;3.45;2.22;;;;;;;12.63;100.00;101022.78;5091892;28;20124;-48
2023/07/26 00:49:13;;;;;;;2.10;1.88;;;;;;;12.59;100.00;101023.81;5073760;28;20056;-52
2023/07/26 00:51:39;;;;;;;4.90;1.80;;;;;;;12.09;100.00;100940.38;5082318;28;20444;-51
2023/07/26 00:54:06;;;;;;;3.88;2.25;;;;;;;12.51;100.00;101025.88;5093959;28;20027;-51
2023/07/26 00:56:31;;;;;;;4.00;1.77;;;;;;;12.45;100.00;101015.56;5112292;28;20054;-50
2023/07/26 00:58:57;;;;;;;2.53;1.88;;;;;;;12.44;100.00;101011.19;5112007;28;20498;-51
2023/07/26 01:01:23;;;;;;;3.08;1.52;;;;;;;12.38;100.00;101014.91;5112356;28;20056;-50
2023/07/26 01:03:48;;;;;;;2.47;1.70;;;;;;;12.37;100.00;101018.47;5111983;28;20063;-47
2023/07/26 01:06:47;;;;;;;2.58;1.67;;;;;;;11.91;100.00;100941.91;5112580;28;20058;-46
2023/07/26 01:09:16;;;;;;;1.92;1.67;;;;;;;12.32;100.00;101019.56;5080130;28;20036;-51
2023/07/26 01:12:05;;;;;;;3.08;2.30;;;;;;;12.28;100.00;101047.84;5091851;28;20525;-49
2023/07/26 01:14:40;;;;;;;1.92;1.73;;;;;;;12.26;100.00;101022.41;5095488;28;20024;-46
2023/07/26 01:17:06;;;;;;;1.95;1.77;;;;;;;12.22;100.00;101029.59;5077519;28;20031;-49
2023/07/26 01:19:31;;;;;;;3.90;1.90;;;;;;;12.11;100.00;101004.50;5077511;28;20036;-48
2023/07/26 01:21:57;;;;;;;2.00;1.77;;;;;;;12.17;100.00;101015.69;5094986;28;20475;-49
2023/07/26 01:24:22;;;;;;;2.75;1.73;;;;;;;12.08;100.00;101004.63;5094523;28;20040;-52
2023/07/26 01:26:48;;;;;;;3.58;2.33;;;;;;;12.12;100.00;101014.13;5095134;28;20032;-48
2023/07/26 01:29:13;;;;;;;3.45;2.03;;;;;;;11.97;100.00;100988.28;5095280;28;20115;-51
2023/07/26 01:31:38;;;;;;;1.83;1.70;;;;;;;11.82;100.00;100976.53;5094208;28;20028;-52
2023/07/26 01:34:05;;;;;;;2.45;1.85;;;;;;;11.67;100.00;100956.81;5095108;28;20092;-52
2023/07/26 01:42:18;;;;;;;5.28;2.00;;;;;;;11.94;100.00;101002.47;5076796;28;20048;-50
2023/07/26 01:44:44;;;;;;;4.53;2.08;;;;;;;11.88;100.00;100999.19;5059403;28;20040;-52
2023/07/26 01:47:09;;;;;;;4.90;1.80;;;;;;;11.51;100.00;100937.16;5093035;28;20090;-49
2023/07/26 02:16:24;;;;;;;2.97;2.17;;;;;;;11.68;100.00;101013.00;5093780;28;20109;-49
2023/07/26 02:18:49;;;;;;;3.70;2.17;;;;;;;11.64;100.00;101007.00;5093993;28;20040;-50
2023/07/26 02:21:16;;;;;;;3.42;2.10;;;;;;;11.61;100.00;101000.97;5093909;28;20059;-49
2023/07/26 02:23:41;;;;;;;2.45;2.20;;;;;;;11.60;100.00;100992.19;5093607;28;20034;-50
2023/07/26 02:26:06;;;;;;;4.15;2.30;;;;;;;11.59;100.00;101006.28;5093875;28;20040;-48
2023/07/26 02:28:32;;;;;;;3.60;2.40;;;;;;;11.57;100.00;100999.34;5094117;28;20114;-50
2023/07/26 02:30:57;;;;;;;2.78;2.33;;;;;;;11.11;100.00;100929.75;5095431;28;20391;-50
2023/07/26 02:33:22;;;;;;;2.85;2.38;;;;;;;11.44;100.00;100980.44;5114262;28;20035;-49
2023/07/26 02:35:48;;;;;;;2.35;1.98;;;;;;;11.51;100.00;101003.06;5114063;28;20046;-51
2023/07/26 02:38:13;;;;;;;2.40;2.20;;;;;;;11.52;100.00;100998.66;5114416;28;20107;-49
2023/07/26 02:40:38;;;;;;;2.45;2.25;;;;;;;11.09;100.00;100921.00;5095924;28;20043;-47
2023/07/26 02:43:04;;;;;;;4.50;2.60;;;;;;;11.35;100.00;100970.22;5114119;28;20035;-48
2023/07/26 02:45:29;;;;;;;3.58;2.78;;;;;;;11.58;100.00;100994.03;5093386;28;20035;-48
2023/07/26 02:47:54;;;;;;;4.55;2.58;;;;;;;11.63;100.00;100999.13;5093991;28;20548;-47
2023/07/26 02:50:20;;;;;;;3.80;2.92;;;;;;;11.20;100.00;100904.84;5093702;28;20461;-53
2023/07/26 02:52:46;;;;;;;7.97;3.33;;;;;;;11.80;100.00;100988.91;5093616;28;20533;-52
2023/07/26 02:55:11;;;;;;;4.10;3.47;;;;;;;11.90;100.00;100986.81;5092382;28;20040;-50
2023/07/26 02:57:36;;;;;;;4.75;3.83;;;;;;;11.62;100.00;100926.22;5093889;28;20392;-52
2023/07/26 03:00:02;;;;;;;5.05;3.88;;;;;;;11.77;100.00;100929.22;5075582;28;20048;-49
2023/07/26 03:02:28;;;;;;;5.03;3.22;;;;;;;11.75;100.00;100915.22;5094863;28;20028;-47
2023/07/26 03:04:53;;;;;;;4.10;3.58;;;;;;;12.28;100.00;101010.03;5093602;28;20119;-49
2023/07/26 03:07:18;;;;;;;4.40;3.88;;;;;;;12.36;100.00;100995.63;5093519;28;20502;-52
2023/07/26 03:09:44;;;;;;;4.53;3.90;;;;;;;12.46;100.00;100988.25;5093572;28;20484;-48
2023/07/26 03:12:09;;;;;;;5.05;4.55;;;;;;;12.50;100.00;100989.84;5093292;28;20047;-50
2023/07/26 03:14:40;;;;;;;5.30;4.80;;;;;;;12.66;100.00;100991.00;5093433;28;20040;-49
2023/07/26 03:17:06;;;;;;;5.15;4.45;;;;;;;12.73;100.00;101000.38;5093255;28;20407;-52
2023/07/26 03:19:31;;;;;;;5.10;4.07;;;;;;;12.77;100.00;100986.16;5074499;28;20066;-47
2023/07/26 03:21:56;;;;;;;5.75;3.88;;;;;;;12.68;100.00;100959.22;5074777;28;20270;-47
2023/07/26 03:24:22;;;;;;;4.55;4.13;;;;;;;12.52;100.00;100916.69;5093037;28;20066;-49
2023/07/26 03:26:47;;;;;;;6.05;4.05;;;;;;;12.98;100.00;100990.59;5093037;28;20520;-47
2023/07/26 03:29:12;;;;;;;5.75;3.72;;;;;;;12.61;100.00;100921.63;5093351;28;20460;-50
2023/07/26 03:31:38;;;;;;;5.68;4.10;;;;;;;13.08;100.00;100991.09;5093230;28;20032;-51
2023/07/26 03:34:03;;;;;;;4.38;3.92;;;;;;;12.84;100.00;100936.59;5092388;28;20368;-49
2023/07/26 03:36:28;;;;;;;7.47;3.63;;;;;;;13.14;100.00;100988.22;5092181;28;20483;-49
2023/07/26 03:38:54;;;;;;;3.63;3.33;;;;;;;12.83;100.00;100929.56;5092850;28;20028;-50
2023/07/26 03:41:19;;;;;;;4.22;3.45;;;;;;;13.21;100.00;100986.19;5092862;28;20036;-49
2023/07/26 03:43:44;;;;;;;4.20;3.30;;;;;;;12.86;100.00;100924.16;5092804;28;20043;-47
2023/07/26 03:46:10;;;;;;;4.80;3.00;;;;;;;12.89;100.00;100916.97;5093166;28;20036;-49
2023/07/26 03:48:35;;;;;;;4.95;3.10;;;;;;;13.34;100.00;100987.38;5093038;28;20040;-48
2023/07/26 03:51:00;;;;;;;5.38;3.40;;;;;;;13.36;100.00;100991.72;5092042;28;20526;-51
2023/07/26 03:53:26;;;;;;;4.32;3.13;;;;;;;12.99;100.00;100918.31;5092603;28;20089;-47
2023/07/26 03:55:51;;;;;;;5.20;2.65;;;;;;;13.38;100.00;100984.56;5092339;28;20028;-46
2023/07/26 03:58:17;;;;;;;3.17;2.45;;;;;;;13.41;100.00;100983.56;5092615;28;20058;-53
2023/07/26 04:00:43;;;;;;;3.90;2.95;;;;;;;13.43;100.00;100971.13;5092442;28;20059;-52
2023/07/26 04:03:08;;;;;;;4.22;2.58;;;;;;;13.10;100.00;100914.41;5074758;28;20463;-48
2023/07/26 04:05:33;;;;;;;4.55;2.40;;;;;;;13.51;100.00;100972.53;5092377;28;20036;-50
2023/07/26 04:07:59;;;;;;;4.47;2.80;;;;;;;13.35;100.00;100941.53;5092343;28;20051;-47
2023/07/26 04:10:26;;;;;;;3.22;2.55;;;;;;;13.19;100.00;100920.16;5092307;28;20044;-52
2023/07/26 04:12:52;;;;;;;7.50;3.00;;;;;;;13.43;100.00;100966.72;5092326;28;20059;-49
2023/07/26 04:15:17;;;;;;;3.17;2.67;;;;;;;12.93;100.00;100900.06;5092110;28;20423;-48
2023/07/26 04:17:42;;;;;;;6.05;3.30;;;;;;;13.19;100.00;100958.97;5073833;28;20036;-47
2023/07/26 04:20:08;;;;;;;4.90;2.83;;;;;;;13.27;100.00;100970.94;5074257;28;20032;-47
2023/07/26 04:22:34;;;;;;;3.85;2.90;;;;;;;13.29;100.00;100979.66;5092343;28;20031;-48
2023/07/26 04:24:59;;;;;;;4.15;3.25;;;;;;;13.18;100.00;100954.59;5057343;28;20044;-51
2023/07/26 04:27:25;;;;;;;5.05;3.75;;;;;;;13.34;100.00;100976.81;5092496;28;20036;-50
2023/07/26 04:29:50;;;;;;;11.70;4.00;;;;;;;13.32;100.00;100970.72;5092022;28;20429;-49
2023/07/26 04:32:15;;;;;;;5.82;3.60;;;;;;;12.79;100.00;100865.44;5091456;28;20047;-49
2023/07/26 04:34:41;;;;;;;5.53;4.00;;;;;;;13.15;100.00;100912.44;5092154;28;20043;-50
2023/07/26 04:37:07;;;;;;;4.50;3.60;;;;;;;13.29;100.00;100923.28;5092258;28;20036;-48
2023/07/26 04:39:32;;;;;;;6.38;3.80;;;;;;;13.25;100.00;100911.97;5090893;28;20078;-49
2023/07/26 04:41:58;;;;;;;5.15;3.70;;;;;;;13.21;100.00;100902.47;5091880;28;20160;-48
2023/07/26 04:44:23;;;;;;;4.13;3.40;;;;;;;13.23;100.00;100902.38;5091349;28;20036;-51
2023/07/26 04:46:48;;;;;;;4.78;3.70;;;;;;;13.67;100.00;100993.91;5091469;28;20028;-47
2023/07/26 04:49:14;;;;;;;6.78;3.88;;;;;;;13.69;100.00;100973.53;5077226;28;20491;-47
2023/07/26 04:51:39;;;;;;;4.30;3.88;;;;;;;13.71;100.00;100971.72;5095655;28;20129;-48
2023/07/26 04:54:05;;;;;;;7.55;5.07;;;;;;;13.78;100.00;100975.78;5095771;28;20067;-49
2023/07/26 04:56:31;;;;;;;7.18;4.13;;;;;;;13.80;100.00;100976.59;5077706;28;20071;-50
2023/07/26 04:58:56;;;;;;;5.18;3.80;;;;;;;13.53;100.00;100919.59;5096099;28;20045;-47
2023/07/26 05:01:23;;;;;;;4.22;3.85;;;;;;;13.96;100.00;100977.66;5095967;28;20051;-50
2023/07/26 05:03:49;;;;;;;4.90;3.70;;;;;;;13.99;100.00;100974.88;5078047;28;20059;-52
2023/07/26 05:06:14;;;;;;;4.32;3.88;;;;;;;13.67;100.00;100905.75;5095113;28;20071;-49
2023/07/26 05:08:39;;;;;;;4.32;3.70;;;;;;;13.96;100.00;100947.66;5077598;28;20070;-46
2023/07/26 05:11:05;;;;;;;4.93;3.90;;;;;;;14.09;100.00;100967.38;5077426;28;20063;-50
2023/07/26 05:13:31;;;;;;;8.35;4.63;;;;;;;13.75;100.00;100904.50;5095817;28;20052;-52
2023/07/26 05:15:56;;;;;;;6.05;4.47;;;;;;;14.15;100.00;100969.75;5077452;28;20036;-50
2023/07/26 05:18:22;;;;;;;7.13;4.43;;;;;;;14.19;100.00;100975.75;5095605;28;20037;-47
2023/07/26 05:20:51;;;;;;;6.53;4.00;;;;;;;14.25;100.00;100989.56;5094764;28;20039;-47
2023/07/26 05:23:17;;;;;;;6.07;3.88;;;;;;;13.77;100.00;100922.97;5077314;28;20036;-49
2023/07/26 05:25:42;;;;;;;6.47;4.03;;;;;;;14.22;100.00;101007.38;5095371;28;20043;-49
2023/07/26 05:28:08;;;;;;;6.53;4.35;;;;;;;13.86;100.00;100952.53;5095301;28;20032;-51
2023/07/26 05:30:40;;;;;;;5.65;4.35;;;;;;;13.81;100.00;100941.25;5095406;28;20502;-50
2023/07/26 05:33:06;;;;;;;7.22;4.22;;;;;;;14.17;100.00;101001.44;5095536;28;20040;-49
2023/07/26 05:35:32;;;;;;;5.63;4.28;;;;;;;14.00;100.00;100966.00;5095235;28;20040;-51
2023/07/26 05:37:57;;;;;;;7.65;5.38;;;;;;;14.27;100.00;101008.06;5076288;28;20050;-48
2023/07/26 05:40:23;;;;;;;5.95;4.80;;;;;;;13.91;100.00;100944.38;5095100;28;20047;-47
2023/07/26 05:42:48;;;;;;;6.88;4.82;;;;;;;13.84;100.00;100956.16;5095337;28;20032;-47
2023/07/26 05:45:13;;;;;;;9.18;5.05;;;;;;;13.79;100.00;100955.50;5095150;28;20059;-47
2023/07/26 05:47:39;;;;;;;6.30;5.00;;;;;;;13.72;100.00;100960.19;5095165;28;20028;-47
2023/07/26 05:50:06;;;;;;;7.45;4.97;;;;;;;13.71;100.00;100968.19;5095100;28;20536;-50
2023/07/26 05:52:31;;;;;;;6.28;4.93;;;;;;;13.69;100.00;100967.41;5094118;28;20485;-50
2023/07/26 05:54:56;;;;;;;7.93;5.10;;;;;;;14.15;100.00;101040.38;5094880;28;20028;-47
2023/07/26 05:57:22;;;;;;;7.68;5.45;;;;;;;13.75;100.00;100980.34;5094859;28;20485;-49
2023/07/26 05:59:47;;;;;;;8.25;6.65;;;;;;;13.66;100.00;100983.41;5093765;28;20051;-51
2023/07/26 06:02:12;;;;;;;8.80;6.82;;;;;;;13.99;100.00;101059.56;5094036;28;20364;-51
2023/07/26 06:04:38;;;;;;;10.30;7.43;;;;;;;13.90;100.00;101057.28;5114647;28;20044;-48
2023/07/26 06:07:04;;;;;;;10.48;7.07;;;;;;;13.94;100.00;101058.03;5115633;28;20070;-52
2023/07/26 06:09:29;;;;;;;12.90;7.15;;;;;;;13.54;100.00;100980.34;5115501;28;20452;-50
2023/07/26 06:11:55;;;;;;;9.05;7.03;;;;;;;13.67;100.00;100996.56;5114718;28;20169;-52
2023/07/26 06:14:21;;;;;;;9.13;7.00;;;;;;;14.21;100.00;101063.94;5115057;28;20043;-52
2023/07/26 06:16:46;;;;;;;8.75;6.82;;;;;;;14.07;100.00;101004.50;5114711;28;20040;-48
2023/07/26 06:19:12;;;;;;;10.50;7.50;;;;;;;14.21;100.00;100998.59;5113396;28;20047;-51
2023/07/26 06:21:38;;;;;;;7.32;6.63;;;;;;;14.82;100.00;101064.72;5094139;28;20043;-51
2023/07/26 06:24:03;;;;;;;6.78;6.13;;;;;;;14.79;100.00;100991.53;5093998;28;20040;-47
2023/07/26 06:26:29;;;;;;;10.13;6.68;;;;;;;15.43;100.00;101063.53;5094366;28;20500;-48
2023/07/26 06:28:54;;;;;;;7.85;5.60;;;;;;;15.52;100.00;101041.03;5094718;28;20032;-48
2023/07/26 06:31:19;;;;;;;7.53;4.80;;;;;;;15.80;100.00;101051.09;5094166;28;20052;-47
2023/07/26 06:33:44;;;;;;;8.07;5.25;;;;;;;15.60;100.00;101007.88;5094193;28;20036;-49
2023/07/26 06:36:10;;;;;;;5.55;4.20;;;;;;;16.14;100.00;101073.19;5093169;28;20039;-49
2023/07/26 06:38:35;;;;;;;5.95;4.10;;;;;;;16.41;100.00;101078.00;5093868;28;20078;-49
2023/07/26 06:41:01;;;;;;;6.82;4.18;;;;;;;16.58;100.00;101052.28;5093882;28;20055;-53
2023/07/26 06:43:26;;;;;;;6.45;3.63;;;;;;;16.40;100.00;100960.28;5089787;28;20467;-51
2023/07/26 06:45:52;;;;;;;5.47;3.35;;;;;;;17.40;100.00;101087.63;5091526;28;20028;-50
2023/07/26 06:48:18;;;;;;;5.50;2.75;;;;;;;17.48;100.00;101082.75;5092001;28;20032;-47
2023/07/26 06:50:44;;;;;;;5.25;3.10;;;;;;;17.28;100.00;101091.84;5092116;28;20693;-48
2023/07/26 06:53:09;;;;;;;6.90;3.58;;;;;;;16.98;100.00;101027.06;5075002;28;20115;-49
2023/07/26 06:55:36;;;;;;;5.88;3.10;;;;;;;17.32;100.00;101088.06;5093509;28;20036;-48
2023/07/26 06:58:02;;;;;;;5.43;3.35;;;;;;;17.20;100.00;101090.53;5075286;28;20032;-52
2023/07/26 07:00:27;;;;;;;12.70;4.13;;;;;;;17.16;100.00;101097.00;5075553;28;20526;-48
2023/07/26 07:03:00;;;;;;;18.63;4.85;;;;;;;16.69;100.00;101043.75;5093677;28;20035;-48
2023/07/26 07:05:30;;;;;;;7.57;4.18;;;;;;;17.00;100.00;101107.63;5093309;28;20031;-52
2023/07/26 07:07:55;;;;;;;5.82;3.50;;;;;;;16.36;100.00;101016.31;5101651;28;20031;-49
2023/07/26 07:10:21;;;;;;;6.25;3.35;;;;;;;16.73;100.00;101085.16;5094895;28;20035;-49
2023/07/26 07:12:47;;;;;;;5.78;3.63;;;;;;;17.03;100.00;101103.91;5077479;28;20126;-50
2023/07/26 07:15:13;;;;;;;5.53;3.67;;;;;;;16.79;100.00;101047.63;5094240;28;20174;-50
2023/07/26 07:17:38;;;;;;;4.78;3.50;;;;;;;16.98;100.00;101042.16;5093276;28;20024;-51
2023/07/26 07:20:06;;;;;;;7.40;4.18;;;;;;;17.12;100.00;101055.53;5063005;28;20550;-51
2023/07/26 07:22:32;;;;;;;6.65;3.63;;;;;;;17.26;100.00;101044.97;5096044;28;20493;-47
2023/07/26 07:24:58;;;;;;;6.07;3.20;;;;;;;17.73;100.00;101112.34;5101635;28;20040;-50
2023/07/26 07:27:23;;;;;;;6.65;3.30;;;;;;;17.58;100.00;101065.31;5092564;28;20032;-50
2023/07/26 07:29:49;;;;;;;8.55;4.03;;;;;;;18.04;100.00;101119.41;5102214;28;20092;-49
2023/07/26 07:32:14;;;;;;;8.43;3.97;;;;;;;18.05;100.00;101089.16;5093874;28;20136;-53
2023/07/26 07:34:40;;;;;;;4.65;3.15;;;;;;;18.65;100.00;101137.94;5096362;28;20036;-49
2023/07/26 07:37:05;;;;;;;4.68;2.80;;;;;;;18.79;100.00;101079.31;5092042;28;20472;-49
2023/07/26 07:39:31;;;;;;;4.05;2.88;;;;;;;19.30;100.00;101090.28;5093797;28;20122;-51
2023/07/26 07:41:57;;;;;;;4.45;2.65;;;;;;;20.13;100.00;101138.19;5073878;28;20039;-48
2023/07/26 07:44:22;;;;;;;3.20;2.38;;;;;;;20.50;100.00;101096.47;5074713;28;20036;-54
2023/07/26 07:46:48;;;;;;;4.88;2.92;;;;;;;21.64;100.00;101156.91;5092582;28;20372;-50
2023/07/26 07:49:13;;;;;;;6.35;2.85;;;;;;;21.40;100.00;101115.84;5077596;28;20190;-48
2023/07/26 07:51:38;;;;;;;5.20;2.58;;;;;;;20.93;100.00;101134.47;5077434;28;20475;-53
2023/07/26 07:54:04;;;;;;;7.53;2.97;;;;;;;20.52;100.00;101161.41;5074447;28;20478;-50
2023/07/26 07:56:29;;;;;;;5.60;2.95;;;;;;;19.92;100.00;101164.53;5094769;28;20089;-52
2023/07/26 07:58:55;;;;;;;8.02;3.08;;;;;;;19.49;100.00;101163.78;5076418;28;20119;-51
2023/07/26 08:01:20;;;;;;;4.38;2.45;;;;;;;19.27;100.00;101162.53;5096435;28;20032;-51
2023/07/26 08:03:45;;;;;;;4.32;2.45;;;;;;;19.85;100.00;101155.19;5057773;28;20055;-52
2023/07/26 08:06:12;;;;;;;5.80;2.38;;;;;;;20.57;100.00;101159.25;5086818;28;20039;-52
2023/07/26 08:08:38;;;;;;;4.05;2.80;;;;;;;20.65;100.00;101117.66;5094638;28;20027;-51
2023/07/26 08:11:04;;;;;;;3.67;2.50;;;;;;;20.66;100.00;101183.56;5097585;28;20119;-55
2023/07/26 08:13:29;;;;;;;4.78;2.92;;;;;;;19.96;100.00;101107.28;5092104;28;20131;-53
2023/07/26 08:15:57;;;;;;;5.78;2.95;;;;;;;20.84;100.00;101167.22;5102458;28;20035;-48
2023/07/26 08:18:23;;;;;;;7.45;2.17;;;;;;;21.70;100.00;101177.03;5094374;28;20101;-52
2023/07/26 08:20:48;;;;;;;3.78;2.47;;;;;;;21.71;100.00;101138.56;5094543;28;20032;-54
2023/07/26 08:23:14;;;;;;;2.95;2.08;;;;;;;22.01;100.00;101197.97;5091973;28;20360;-49
2023/07/26 08:25:40;;;;;;;4.53;2.20;;;;;;;22.54;100.00;101198.41;5075621;28;20601;-52
2023/07/26 08:28:05;;;;;;;2.47;2.28;;;;;;;23.11;100.00;101199.31;5097553;28;20397;-52
2023/07/26 08:30:31;;;;;;;5.93;2.13;;;;;;;23.81;100.00;101212.50;5106039;28;20027;-53
2023/07/26 08:32:57;;;;;;;3.15;1.92;;;;;;;23.05;100.00;101166.72;5112153;28;20046;-52
2023/07/26 08:35:22;;;;;;;3.55;2.03;;;;;;;22.57;100.00;101207.09;5112785;28;20040;-53
2023/07/26 08:37:48;;;;;;;6.75;1.98;;;;;;;21.96;100.00;101124.22;5112406;28;20543;-49
2023/07/26 08:40:13;;;;;;;3.63;1.90;;;;;;;22.70;100.00;101202.56;5112209;28;20031;-56
2023/07/26 08:42:39;;;;;;;3.33;2.08;;;;;;;22.33;100.00;101190.19;5094284;28;20103;-51
2023/07/26 08:45:06;;;;;;;4.68;2.45;;;;;;;21.98;100.00;101200.03;5092204;28;20089;-52
2023/07/26 08:47:33;;;;;;;7.70;2.42;;;;;;;21.80;100.00;101218.28;5086563;28;20039;-51
2023/07/26 08:49:58;;;;;;;3.35;2.20;;;;;;;21.53;100.00;101103.28;5082162;28;20031;-55
2023/07/26 08:52:24;;;;;;;4.97;2.50;;;;;;;22.21;100.00;101202.69;5091674;28;20028;-53
2023/07/26 08:54:50;;;;;;;2.63;2.22;;;;;;;21.78;100.00;101214.84;5073347;28;20039;-58
2023/07/26 08:57:16;;;;;;;3.60;2.72;;;;;;;21.66;100.00;101144.25;5092010;28;20123;-54
2023/07/26 08:59:42;;;;;;;3.15;2.10;;;;;;;22.50;100.00;101191.59;5091625;28;20032;-53
2023/07/26 09:02:09;;;;;;;2.35;2.15;;;;;;;23.16;100.00;101169.41;5073127;28;20063;-49
2023/07/26 09:04:34;;;;;;;3.08;2.05;;;;;;;23.38;100.00;101199.81;5073237;28;20391;-57
2023/07/26 09:07:04;;;;;;;4.88;1.90;;;;;;;23.34;100.00;101157.19;5097746;28;20028;-52
2023/07/26 09:09:33;;;;;;;3.10;1.75;;;;;;;23.91;100.00;101200.84;5102849;28;20114;-52
2023/07/26 09:11:59;;;;;;;3.60;1.88;;;;;;;24.00;100.00;101162.44;5112020;28;20028;-50
2023/07/26 09:14:27;;;;;;;2.90;2.05;;;;;;;23.63;100.00;101173.69;5092944;28;20423;-53
2023/07/26 09:17:00;;;;;;;4.28;2.40;;;;;;;23.06;100.00;101208.72;5107158;28;20081;-55
2023/07/26 09:19:32;;;;;;;2.22;1.90;;;;;;;22.81;100.00;101210.63;5073842;28;20154;-49
2023/07/26 09:21:59;;;;;;;2.58;2.17;;;;;;;22.98;100.00;101148.41;5091625;28;20107;-52
2023/07/26 09:24:39;;;;;;;3.17;2.38;;;;;;;23.72;100.00;101207.88;5092501;28;20081;-51
2023/07/26 09:27:07;;;;;;;2.92;2.70;;;;;;;23.17;100.00;101181.88;5073364;28;20122;-51
2023/07/26 09:29:34;;;;;;;3.78;2.38;;;;;;;21.99;100.00;101159.69;5091120;28;20043;-55
2023/07/26 09:31:59;;;;;;;4.53;2.47;;;;;;;22.22;100.00;101230.38;5111288;28;20042;-50
2023/07/26 09:34:25;;;;;;;4.13;2.28;;;;;;;22.96;100.00;101222.00;5112982;28;20040;-49
2023/07/26 09:36:51;;;;;;;4.45;2.33;;;;;;;23.85;100.00;101216.63;5094015;28;20119;-52
2023/07/26 09:39:21;;;;;;;3.90;2.20;;;;;;;24.25;100.00;101236.63;5084181;28;20047;-53
2023/07/26 09:41:48;;;;;;;4.70;2.50;;;;;;;24.64;100.00;101210.88;5115389;28;20031;-58
2023/07/26 09:44:15;;;;;;;5.47;2.05;;;;;;;25.05;100.00;101218.09;5113560;28;20042;-51
2023/07/26 09:46:55;;;;;;;3.72;2.55;;;;;;;25.20;100.00;101179.06;5094855;28;20479;-52
2023/07/26 09:49:22;;;;;;;5.18;2.80;;;;;;;24.59;100.00;101240.00;5094928;28;20054;-50
2023/07/26 09:51:48;;;;;;;4.45;2.08;;;;;;;24.87;100.00;101234.00;5093355;28;20020;-51
2023/07/26 09:54:14;;;;;;;3.30;2.03;;;;;;;24.77;100.00;101184.63;5093129;28;20119;-49
2023/07/26 09:56:41;;;;;;;2.80;1.85;;;;;;;25.28;100.00;101229.59;5094420;28;20068;-52
2023/07/26 09:59:11;;;;;;;4.18;2.30;;;;;;;25.69;100.00;101253.75;5076767;28;20064;-54
2023/07/26 10:01:42;;;;;;;6.37;2.67;;;;;;;25.31;100.00;101245.47;5093655;28;20036;-50
2023/07/26 10:04:22;;;;;;;4.95;2.58;;;;;;;24.18;100.00;101231.84;5094548;28;20115;-54
2023/07/26 10:06:49;;;;;;;3.47;2.42;;;;;;;23.55;100.00;101174.31;5093228;28;20039;-51
2023/07/26 10:09:15;;;;;;;4.43;2.40;;;;;;;23.70;100.00;101174.91;5093666;28;20115;-54
2023/07/26 10:11:42;;;;;;;6.00;2.25;;;;;;;23.93;100.00;101249.13;5093610;28;20439;-53
2023/07/26 10:14:12;;;;;;;4.63;2.50;;;;;;;23.85;100.00;101239.00;5093106;28;20044;-47
2023/07/26 10:16:38;;;;;;;9.73;2.72;;;;;;;24.48;100.00;101240.06;5094194;28;20058;-55
2023/07/26 10:19:05;;;;;;;4.07;2.30;;;;;;;24.52;100.00;101177.78;5093104;28;20040;-53
2023/07/26 10:21:30;;;;;;;5.63;2.80;;;;;;;25.48;100.00;101239.50;5094213;28;20093;-49
2023/07/26 10:23:57;;;;;;;5.13;2.63;;;;;;;25.48;100.00;101248.41;5075943;28;20442;-51
2023/07/26 10:26:23;;;;;;;4.90;2.70;;;;;;;24.67;100.00;101236.66;5094037;28;20032;-51
2023/07/26 10:28:48;;;;;;;3.47;2.55;;;;;;;23.73;100.00;101183.53;5094331;28;20084;-50
2023/07/26 10:31:13;;;;;;;4.22;2.50;;;;;;;23.49;100.00;101237.47;5076235;28;20044;-51
2023/07/26 10:33:45;;;;;;;3.05;2.50;;;;;;;23.65;100.00;101169.88;5096921;28;20036;-52
2023/07/26 10:36:12;;;;;;;3.72;2.30;;;;;;;24.24;100.00;101164.09;5106420;28;20075;-52
2023/07/26 10:38:46;;;;;;;3.78;2.55;;;;;;;25.00;100.00;101247.28;5105006;28;20020;-50
2023/07/26 10:41:23;;;;;;;3.38;2.65;;;;;;;24.29;100.00;101176.19;5075201;28;20028;-51
2023/07/26 10:43:49;;;;;;;4.60;2.70;;;;;;;24.42;100.00;101241.44;5105829;28;20406;-49
2023/07/26 10:46:15;;;;;;;4.70;2.55;;;;;;;23.82;100.00;101190.84;5102438;28;20117;-53
2023/07/26 10:48:41;;;;;;;3.72;2.53;;;;;;;23.57;100.00;101198.34;5075663;28;20471;-50
2023/07/26 10:51:23;;;;;;;3.58;3.08;;;;;;;23.44;100.00;101242.31;5092031;28;20122;-51
2023/07/26 10:53:49;;;;;;;3.13;2.00;;;;;;;23.70;100.00;101191.03;5092938;28;20382;-50
2023/07/26 10:56:25;;;;;;;4.68;2.60;;;;;;;25.01;100.00;101252.56;5093244;28;20042;-53
2023/07/26 10:58:58;;;;;;;4.53;2.78;;;;;;;24.21;100.00;101197.50;5057157;28;20024;-53
2023/07/26 11:01:30;;;;;;;3.92;2.45;;;;;;;23.91;100.00;101187.41;5074142;28;20032;-52
2023/07/26 11:03:59;;;;;;;5.72;2.63;;;;;;;24.88;100.00;101219.56;5093479;28;20028;-54
2023/07/26 11:07:01;;;;;;;5.15;3.05;;;;;;;25.99;100.00;101251.00;5074891;28;20474;-51
2023/07/26 11:09:30;;;;;;;4.25;3.28;;;;;;;26.55;100.00;101253.09;5093593;28;20398;-50
2023/07/26 11:12:01;;;;;;;2.42;2.22;;;;;;;26.78;100.00;101204.03;5093216;28;20038;-53
2023/07/26 11:14:31;;;;;;;3.03;2.45;;;;;;;27.39;97.20;101201.75;5093057;28;20443;-52
2023/07/26 11:16:58;;;;;;;4.13;2.35;;;;;;;27.67;99.62;101266.72;5092189;28;20081;-53
2023/07/26 11:19:23;;;;;;;3.33;2.17;;;;;;;27.45;100.00;101240.03;5073752;28;20032;-54
2023/07/26 11:21:49;;;;;;;3.67;2.20;;;;;;;27.61;99.24;101213.22;5092856;28;20036;-54
2023/07/26 11:24:14;;;;;;;2.25;2.03;;;;;;;28.15;98.44;101261.91;5091765;28;20047;-55
2023/07/26 11:26:46;;;;;;;6.05;2.88;;;;;;;28.27;95.70;101202.97;5092993;28;20035;-55
2023/07/26 11:29:12;;;;;;;2.72;2.33;;;;;;;28.11;91.96;101284.84;5074983;28;20455;-52
2023/07/26 11:31:38;;;;;;;2.65;1.90;;;;;;;28.31;90.13;101245.81;5092863;28;20036;-52
2023/07/26 11:34:17;;;;;;;3.17;2.80;;;;;;;27.52;91.43;101242.00;5074541;28;20074;-53
2023/07/26 11:36:43;;;;;;;4.18;2.80;;;;;;;27.97;96.67;101279.06;5094382;28;20059;-53
2023/07/26 11:39:27;;;;;;;4.65;2.95;;;;;;;28.08;92.07;101224.78;5112680;28;20028;-51
2023/07/26 11:41:52;;;;;;;4.10;2.40;;;;;;;27.32;94.22;101237.66;5112972;28;20034;-53
2023/07/26 11:44:22;;;;;;;3.05;2.33;;;;;;;26.13;94.49;101279.44;5113019;28;20451;-51
2023/07/26 11:46:47;;;;;;;2.25;2.05;;;;;;;25.47;99.78;101240.44;5094562;28;20197;-54